London, Texas
Current Conditions -  °F | °C
As of 4:51 PM on Wednesday 22 Oct 2014 (Local Time) from KJCT Reporting Station
Broken Clouds Broken Clouds  
Wind Chill: 75°   Ceiling: 9500
Heat Index: 75°   Visibility: 9mi
Dew Point: 51°   Wind: 5mph
Humidity: 43%   Direction: 180°S
Pressure: 30.08"   Gusts: NA
Location:  30.68°N, 99.58°W
Report Text: KJCT 222151Z AUTO 18004KT 9SM SCT080 BKN095 BKN120 24/11 A3008 RMK AO2 SLP155 T02390106
Loading
Personal Weather Stations






























Interactive Weather Map
Tropical Storm Tracking
New forecast layout! Learn more

10-Day Weather Forecast

Advertisements
Track Severe Weather on mobile